Map

Track Data

SID SEASON NUMBER BASIN SUBBASIN NAME ISO_TIME NATURE LAT LON WMO_WIND WMO_PRES WMO_AGENCY TRACK_TYPE DIST2LAND LANDFALL IFLAG USA_AGENCY USA_ATCF_ID USA_LAT USA_LON USA_RECORD USA_STATUS USA_WIND USA_PRES USA_SSHS USA_R34_NE USA_R34_SE USA_R34_SW USA_R34_NW USA_R50_NE USA_R50_SE USA_R50_SW USA_R50_NW USA_R64_NE USA_R64_SE USA_R64_SW USA_R64_NW USA_POCI USA_ROCI USA_RMW USA_EYE TOKYO_LAT TOKYO_LON TOKYO_GRADE TOKYO_WIND TOKYO_PRES TOKYO_R50_DIR TOKYO_R50_LONG TOKYO_R50_SHORT TOKYO_R30_DIR TOKYO_R30_LONG TOKYO_R30_SHORT TOKYO_LAND CMA_LAT CMA_LON CMA_CAT CMA_WIND CMA_PRES HKO_LAT HKO_LON HKO_CAT HKO_WIND HKO_PRES NEWDELHI_LAT NEWDELHI_LON NEWDELHI_GRADE NEWDELHI_WIND NEWDELHI_PRES NEWDELHI_CI NEWDELHI_DP NEWDELHI_POCI REUNION_LAT REUNION_LON REUNION_TYPE REUNION_WIND REUNION_PRES REUNION_TNUM REUNION_CI REUNION_RMW REUNION_R34_NE REUNION_R34_SE REUNION_R34_SW REUNION_R34_NW REUNION_R50_NE REUNION_R50_SE REUNION_R50_SW REUNION_R50_NW REUNION_R64_NE REUNION_R64_SE REUNION_R64_SW REUNION_R64_NW BOM_LAT BOM_LON BOM_TYPE BOM_WIND BOM_PRES BOM_TNUM BOM_CI BOM_RMW BOM_R34_NE BOM_R34_SE BOM_R34_SW BOM_R34_NW BOM_R50_NE BOM_R50_SE BOM_R50_SW BOM_R50_NW BOM_R64_NE BOM_R64_SE BOM_R64_SW BOM_R64_NW BOM_ROCI BOM_POCI BOM_EYE BOM_POS_METHOD BOM_PRES_METHOD NADI_LAT NADI_LON NADI_CAT NADI_WIND NADI_PRES WELLINGTON_LAT WELLINGTON_LON WELLINGTON_WIND WELLINGTON_PRES DS824_LAT DS824_LON DS824_STAGE DS824_WIND DS824_PRES TD9636_LAT TD9636_LON TD9636_STAGE TD9636_WIND TD9636_PRES TD9635_LAT TD9635_LON TD9635_WIND TD9635_PRES TD9635_ROCI NEUMANN_LAT NEUMANN_LON NEUMANN_CLASS NEUMANN_WIND NEUMANN_PRES MLC_LAT MLC_LON MLC_CLASS MLC_WIND MLC_PRES USA_GUST BOM_GUST BOM_GUST_PER REUNION_GUST REUNION_GUST_PER USA_SEAHGT USA_SEARAD_NE USA_SEARAD_SE USA_SEARAD_SW USA_SEARAD_NW STORM_SPEED STORM_DIR
1976231N26276 1976 95 NA GM DOTTIE 1976-08-18 00:00:00 TS 26.0000 -84.0000 20 1010 hurdat_atl main 191 185 O_____________ hurdat_atl AL081976 26.0000 -84.0000 TD 20 1010 -1 9 138
1976231N26276 1976 95 NA GM DOTTIE 1976-08-18 03:00:00 TS 25.6501 -83.6497 main 178 173 P_____________ AL081976 25.6501 -83.6497 TD 20 1009 -1 9 138
1976231N26276 1976 95 NA GM DOTTIE 1976-08-18 06:00:00 TS 25.3000 -83.3000 20 hurdat_atl main 173 164 I_____________ hurdat_atl AL081976 25.3000 -83.3000 TD 20 1009 -1 9 138
1976231N26276 1976 95 NA GM DOTTIE 1976-08-18 09:00:00 TS 24.9625 -82.9624 main 164 161 P_____________ AL081976 24.9625 -82.9624 TD 20 1009 -1 8 138
1976231N26276 1976 95 NA GM DOTTIE 1976-08-18 12:00:00 TS 24.7000 -82.7000 20 1009 hurdat_atl main 161 156 O_____________ hurdat_atl AL081976 24.7000 -82.7000 TD 20 1009 -1 5 140
1976231N26276 1976 95 NA NA DOTTIE 1976-08-18 15:00:00 TS 24.5474 -82.5777 main 156 152 P_____________ AL081976 24.5474 -82.5777 TD 20 -1 3 138
1976231N26276 1976 95 NA NA DOTTIE 1976-08-18 18:00:00 TS 24.5000 -82.5000 20 hurdat_atl main 152 144 O_____________ hurdat_atl AL081976 24.5000 -82.5000 TD 20 -1 2 98
1976231N26276 1976 95 NA NA DOTTIE 1976-08-18 21:00:00 TS 24.5200 -82.3500 main 144 121 P_____________ AL081976 24.5200 -82.3500 TD 22 -1 3 70
1976231N26276 1976 95 NA NA DOTTIE 1976-08-19 00:00:00 TS 24.6000 -82.2000 25 hurdat_atl main 121 106 O_____________ hurdat_atl AL081976 24.6000 -82.2000 TD 25 -1 3 53
1976231N26276 1976 95 NA GM DOTTIE 1976-08-19 03:00:00 TS 24.6925 -82.1000 main 106 92 P_____________ AL081976 24.6925 -82.1000 TD 27 -1 3 42
1976231N26276 1976 95 NA GM DOTTIE 1976-08-19 06:00:00 TS 24.8000 -82.0000 30 1003 hurdat_atl main 92 92 O_____________ hurdat_atl AL081976 24.8000 -82.0000 TD 30 1003 -1 2 53
1976231N26276 1976 95 NA GM DOTTIE 1976-08-19 09:00:00 TS 24.7943 -81.9531 main 92 55 P_____________ AL081976 24.7943 -81.9531 TD 32 1003 -1 3 54
1976231N26276 1976 95 NA GM DOTTIE 1976-08-19 12:00:00 TS 25.0000 -81.7000 35 hurdat_atl main 55 0 I_____________ hurdat_atl AL081976 25.0000 -81.7000 TS 35 1004 0 13 47
1976231N26276 1976 95 NA NA DOTTIE 1976-08-19 15:00:00 TS 25.6970 -80.8891 main 0 0 P_____________ AL081976 25.6970 -80.8891 TS 35 1005 0 22 42
1976231N26276 1976 95 NA NA DOTTIE 1976-08-19 18:00:00 TS 26.6000 -80.1000 35 1006 hurdat_atl main 0 0 O_____________ hurdat_atl AL081976 26.6000 -80.1000 TS 35 1006 0 19 27
1976231N26276 1976 95 NA NA DOTTIE 1976-08-19 21:00:00 TS 27.4142 -79.9278 main 37 37 P_____________ AL081976 27.4142 -79.9278 TS 37 1003 0 16 3
1976231N26276 1976 95 NA NA DOTTIE 1976-08-20 00:00:00 TS 28.2000 -80.0000 40 hurdat_atl main 59 48 I_____________ hurdat_atl AL081976 28.2000 -80.0000 TS 40 1001 0 15 358
1976231N26276 1976 95 NA NA DOTTIE 1976-08-20 03:00:00 TS 28.9450 -79.9923 main 66 66 P_____________ AL081976 28.9450 -79.9923 TS 42 998 0 14 0
1976231N26276 1976 95 NA NA DOTTIE 1976-08-20 06:00:00 TS 29.6000 -80.0000 45 996 hurdat_atl main 103 103 O_____________ hurdat_atl AL081976 29.6000 -80.0000 TS 45 996 0 12 0
1976231N26276 1976 95 NA NA DOTTIE 1976-08-20 09:00:00 TS 30.1000 -80.0000 main 128 128 P_____________ AL081976 30.1000 -80.0000 TS 42 997 0 10 1
1976231N26276 1976 95 NA NA DOTTIE 1976-08-20 12:00:00 TS 30.6000 -80.0000 40 999 hurdat_atl main 134 108 O_____________ hurdat_atl AL081976 30.6000 -80.0000 TS 40 999 0 12 0
1976231N26276 1976 95 NA NA DOTTIE 1976-08-20 15:00:00 TS 31.3000 -80.0000 main 108 62 P_____________ AL081976 31.3000 -80.0000 TS 37 1002 0 14 0
1976231N26276 1976 95 NA NA DOTTIE 1976-08-20 18:00:00 TS 32.0000 -80.0000 35 1005 hurdat_atl main 62 0 O_____________ hurdat_atl AL081976 32.0000 -80.0000 TS 35 1005 0 13 1
1976231N26276 1976 95 NA NA DOTTIE 1976-08-20 21:00:00 TS 32.5825 -80.0000 main 0 0 P_____________ AL081976 32.5825 -80.0000 TS 35 1005 0 10 1
1976231N26276 1976 95 NA NA DOTTIE 1976-08-21 00:00:00 TS 33.0000 -80.0000 35 1005 hurdat_atl main 0 0 O_____________ hurdat_atl AL081976 33.0000 -80.0000 TS 35 1005 0 6 2
1976231N26276 1976 95 NA NA DOTTIE 1976-08-21 03:00:00 TS 33.2100 -80.0000 main 0 0 P_____________ AL081976 33.2100 -80.0000 TS 30 1007 -1 3 0
1976231N26276 1976 95 NA NA DOTTIE 1976-08-21 06:00:00 TS 33.3000 -80.0000 25 1010 hurdat_atl main 0 0 O_____________ hurdat_atl AL081976 33.3000 -80.0000 TD 25 1010 -1 2 0
1976231N26276 1976 95 NA NA DOTTIE 1976-08-21 09:00:00 TS 33.3925 -80.0000 main 0 0 P_____________ AL081976 33.3925 -80.0000 TD 22 1012 -1 2 8
1976231N26276 1976 95 NA NA DOTTIE 1976-08-21 12:00:00 TS 33.5000 -80.0000 20 1015 hurdat_atl main 0 O_____________ hurdat_atl AL081976 33.5000 -80.0000 TD 20 1015 -1 2 0

About IBTrACS Database

This database is a web-friendly format of International Best Track Archive for Climate Stewardship (IBTrACS), a global best track data archive curated by NOAA dating back to 1842.

Updated: 2021-11-26